Time;durP1;ratioP1;P1;durP2;ratioP2;P2;SDS_P1;SDS_P2;PMS_P1;PMS_P2;Temp;Humidity;BMP_temperature;BMP_pressure;BME280_temperature;BME280_humidity;BME280_pressure;Samples;Min_cycle;Max_cycle;Signal;HPM_P1;HPM_P2
2022/06/05 00:02:15;;;;;;;1999.90;999.90;;;12.20;1.00;;;;;;5112850;28;20047;-78
2022/06/05 00:04:53;;;;;;;1999.90;999.90;;;12.20;1.00;;;;;;5112573;28;20353;-79
2022/06/05 00:07:55;;;;;;;1999.90;999.90;;;12.20;1.00;;;;;;5114116;28;20274;-78
2022/06/05 00:10:26;;;;;;;1999.90;687.28;;;12.20;1.00;;;;;;5112881;28;20159;-80
2022/06/05 00:13:15;;;;;;;1999.90;547.08;;;12.30;1.00;;;;;;5113583;28;20089;-79
2022/06/05 00:15:41;;;;;;;1999.90;653.77;;;12.20;1.00;;;;;;5113725;28;20052;-78
2022/06/05 00:18:07;;;;;;;1999.90;999.90;;;12.20;1.00;;;;;;5078237;28;20404;-78
2022/06/05 00:20:32;;;;;;;1999.90;717.72;;;12.10;1.00;;;;;;5094977;28;20154;-80
2022/06/05 00:22:59;;;;;;;1878.43;810.75;;;12.10;1.00;;;;;;5078207;28;20040;-80
2022/06/05 00:25:51;;;;;;;1999.90;999.90;;;12.10;1.00;;;;;;5094789;28;20051;-79
2022/06/05 00:28:32;;;;;;;1999.90;999.90;;;12.00;1.00;;;;;;5113166;28;20468;-79
2022/06/05 00:31:15;;;;;;;1999.90;447.35;;;12.10;1.00;;;;;;5113377;28;20039;-80
2022/06/05 00:33:41;;;;;;;1999.90;999.90;;;12.10;1.00;;;;;;5113312;28;20392;-78
2022/06/05 00:36:34;;;;;;;1999.90;465.33;;;13.10;1.00;;;;;;5094351;28;20047;-78
2022/06/05 00:39:19;;;;;;;1999.90;687.42;;;12.10;1.00;;;;;;5093827;28;20057;-78
2022/06/05 00:42:07;;;;;;;1999.90;750.08;;;12.10;1.00;;;;;;5095178;28;20071;-80
2022/06/05 00:44:39;;;;;;;1999.90;999.90;;;11.00;1.00;;;;;;5113079;28;20492;-79
2022/06/05 00:47:06;;;;;;;1999.90;634.33;;;12.10;1.00;;;;;;5093946;28;20055;-78
2022/06/05 00:49:47;;;;;;;1999.90;999.90;;;12.10;1.00;;;;;;5094289;28;20063;-80
2022/06/05 00:52:14;;;;;;;1999.90;999.90;;;12.00;1.00;;;;;;5112782;28;20528;-80
2022/06/05 00:54:40;;;;;;;1999.90;999.90;;;12.10;1.00;;;;;;5112636;28;20044;-81
2022/06/05 00:57:09;;;;;;;1999.90;999.90;;;13.00;1.00;;;;;;5112107;28;20144;-80
2022/06/05 00:59:38;;;;;;;1999.90;999.90;;;12.00;1.00;;;;;;5111966;28;20059;-72
2022/06/05 01:02:05;;;;;;;1999.90;999.90;;;12.00;1.00;;;;;;5109969;28;20083;-71
2022/06/05 01:04:32;;;;;;;1999.90;643.05;;;12.00;1.00;;;;;;5112086;28;20062;-72
2022/06/05 01:06:58;;;;;;;1999.90;694.05;;;12.00;1.00;;;;;;5112546;28;20513;-71
2022/06/05 01:09:24;;;;;;;1999.90;999.90;;;12.00;1.00;;;;;;5112319;28;20044;-72
2022/06/05 01:11:55;;;;;;;1999.90;999.90;;;12.00;1.00;;;;;;5111754;28;20044;-72
2022/06/05 01:14:56;;;;;;;1999.90;999.90;;;11.90;1.00;;;;;;5111182;28;20081;-73
2022/06/05 01:17:41;;;;;;;1999.90;632.00;;;12.00;2.40;;;;;;5111041;28;20046;-76
2022/06/05 01:20:40;;;;;;;1999.90;845.58;;;12.00;4.60;;;;;;5093247;28;20055;-72
2022/06/05 01:23:24;;;;;;;;;;;12.00;5.50;;;;;;5112537;28;20055;-72
2022/06/05 01:25:59;;;;;;;1999.90;999.90;;;11.90;11.30;;;;;;5111571;28;19990;-73
2022/06/05 01:28:28;;;;;;;1999.90;756.25;;;12.00;14.50;;;;;;5111394;28;20055;-72
2022/06/05 01:31:20;;;;;;;1999.90;751.20;;;12.00;11.70;;;;;;5111836;28;20172;-72
2022/06/05 01:34:04;;;;;;;1999.90;999.90;;;11.90;12.50;;;;;;5109849;28;20523;-72
2022/06/05 01:36:44;;;;;;;1999.90;612.28;;;11.90;10.90;;;;;;5110947;28;20610;-72
2022/06/05 01:39:19;;;;;;;1999.90;999.90;;;11.90;10.60;;;;;;5110219;28;20104;-77
2022/06/05 01:41:52;;;;;;;1999.90;999.90;;;11.90;9.50;;;;;;5111256;28;20476;-73
2022/06/05 01:44:33;;;;;;;1999.90;999.90;;;11.90;12.70;;;;;;5111645;28;20054;-72
2022/06/05 01:47:04;;;;;;;1999.90;745.08;;;11.90;18.20;;;;;;5111243;28;20047;-72
2022/06/05 01:49:42;;;;;;;1999.90;999.90;;;12.00;16.70;;;;;;5111256;28;20051;-72
2022/06/05 01:52:33;;;;;;;1999.90;999.90;;;11.90;15.20;;;;;;5110873;28;20047;-72
2022/06/05 01:55:15;;;;;;;1999.90;786.55;;;11.90;20.80;;;;;;5111320;28;20098;-72
2022/06/05 01:57:41;;;;;;;1999.90;999.90;;;11.90;21.40;;;;;;5110252;28;20146;-72
2022/06/05 02:00:10;;;;;;;1999.90;999.90;;;11.90;26.80;;;;;;5109654;28;20049;-73
2022/06/05 02:02:58;;;;;;;1999.90;999.90;;;11.90;27.60;;;;;;5111278;28;20445;-72
2022/06/05 02:05:28;;;;;;;1999.90;999.90;;;11.90;30.60;;;;;;5111136;28;20442;-73
2022/06/05 02:08:03;;;;;;;1999.90;999.90;;;11.90;31.70;;;;;;5111097;28;20086;-72
2022/06/05 02:10:44;;;;;;;1999.90;999.90;;;11.90;29.70;;;;;;5109898;28;20077;-72
2022/06/05 02:13:10;;;;;;;1999.90;999.90;;;11.90;31.10;;;;;;5111833;28;20043;-72
2022/06/05 02:15:36;;;;;;;1999.90;999.90;;;12.00;32.30;;;;;;5110941;28;20075;-72
2022/06/05 02:18:02;;;;;;;1999.90;999.90;;;12.00;31.50;;;;;;5092967;28;20468;-73
2022/06/05 02:20:28;;;;;;;1999.90;999.90;;;12.00;32.30;;;;;;5110575;28;20075;-72
2022/06/05 02:22:54;;;;;;;1999.90;999.90;;;12.10;44.10;;;;;;5111374;28;20100;-72
2022/06/05 02:25:25;;;;;;;1999.90;999.90;;;11.90;42.70;;;;;;5110262;28;20044;-72
2022/06/05 02:28:01;;;;;;;1999.90;999.90;;;11.90;43.40;;;;;;5111454;28;20112;-72
2022/06/05 02:30:42;;;;;;;1999.90;999.90;;;11.90;44.90;;;;;;5110388;28;20043;-72
2022/06/05 02:33:25;;;;;;;1999.90;999.90;;;12.00;47.70;;;;;;5111345;28;20051;-72
2022/06/05 02:36:07;;;;;;;1999.90;999.90;;;11.90;57.10;;;;;;5111285;28;20051;-72
2022/06/05 02:38:53;;;;;;;1999.90;999.90;;;12.00;61.10;;;;;;5091872;28;20058;-71
2022/06/05 02:41:32;;;;;;;1999.90;999.90;;;11.90;59.90;;;;;;5110190;28;20044;-72
2022/06/05 02:47:18;;;;;;;1999.90;999.90;;;11.80;59.70;;;;;;5111106;28;20449;-72
2022/06/05 02:49:55;;;;;;;1999.90;999.90;;;11.80;63.70;;;;;;5110280;28;20096;-72
2022/06/05 02:52:22;;;;;;;1999.90;999.90;;;11.80;68.00;;;;;;5110032;28;20117;-76
2022/06/05 02:54:56;;;;;;;1999.90;999.90;;;11.90;71.00;;;;;;5109862;28;20047;-72
2022/06/05 02:57:21;;;;;;;1999.90;999.90;;;12.30;72.50;;;;;;5109535;28;20082;-72
2022/06/05 02:59:47;;;;;;;1999.90;999.90;;;11.90;70.30;;;;;;5109944;28;20079;-72
2022/06/05 03:04:57;;;;;;;1999.90;999.90;;;11.90;72.70;;;;;;5110708;28;20057;-72
2022/06/05 03:07:23;;;;;;;1999.90;999.90;;;11.90;75.90;;;;;;5110451;28;20054;-72
2022/06/05 03:09:48;;;;;;;1999.90;999.90;;;11.90;77.50;;;;;;5113503;28;20031;-73
2022/06/05 03:12:14;;;;;;;1999.90;999.90;;;12.00;90.70;;;;;;5114074;28;20047;-72
2022/06/05 03:14:40;;;;;;;1999.90;999.90;;;12.00;91.70;;;;;;5113264;28;20047;-72
2022/06/05 03:17:05;;;;;;;1999.90;999.90;;;12.00;91.40;;;;;;5114372;28;20086;-72
2022/06/05 03:19:31;;;;;;;1999.90;999.90;;;11.90;90.70;;;;;;5113331;28;20557;-71
2022/06/05 03:21:57;;;;;;;1999.90;999.90;;;11.90;92.70;;;;;;5114518;28;20468;-71
2022/06/05 03:24:22;;;;;;;1999.90;999.90;;;11.90;93.60;;;;;;5078370;28;20044;-76
2022/06/05 03:26:48;;;;;;;1999.90;999.90;;;11.90;94.40;;;;;;5079761;28;20056;-71
2022/06/05 03:29:14;;;;;;;1999.90;999.90;;;11.90;94.60;;;;;;5113653;28;20043;-71
2022/06/05 03:31:40;;;;;;;1999.90;999.90;;;12.40;95.40;;;;;;5113806;28;20135;-72
2022/06/05 03:34:05;;;;;;;1999.90;999.90;;;12.00;99.50;;;;;;5095791;28;20173;-72
2022/06/05 03:36:31;;;;;;;1999.90;999.90;;;12.00;99.40;;;;;;5113945;28;20044;-72
2022/06/05 03:38:57;;;;;;;1999.90;999.90;;;12.00;99.30;;;;;;5113354;28;20052;-73
2022/06/05 03:41:22;;;;;;;1999.90;999.90;;;12.10;99.20;;;;;;5113566;28;20039;-73
2022/06/05 03:43:48;;;;;;;1999.90;999.90;;;12.10;99.30;;;;;;5113563;28;20039;-72
2022/06/05 03:46:15;;;;;;;1999.90;999.90;;;12.10;99.10;;;;;;5096008;28;20058;-71
2022/06/05 03:48:42;;;;;;;1999.90;999.90;;;12.10;99.90;;;;;;5095476;28;20081;-72
2022/06/05 03:51:17;;;;;;;1999.90;999.90;;;12.10;99.60;;;;;;5095542;28;20043;-72
2022/06/05 03:53:43;;;;;;;1999.90;999.90;;;12.10;99.90;;;;;;5113056;28;20046;-73
2022/06/05 03:56:19;;;;;;;1999.90;999.90;;;12.20;99.90;;;;;;5113681;28;20044;-72
2022/06/05 03:58:46;;;;;;;1999.90;999.90;;;12.10;99.90;;;;;;5113514;28;20113;-72
2022/06/05 04:01:13;;;;;;;1999.90;999.90;;;12.10;99.90;;;;;;5111974;28;20090;-72
2022/06/05 04:03:40;;;;;;;1999.90;999.90;;;12.30;99.90;;;;;;5113170;28;20484;-73
2022/06/05 04:06:11;;;;;;;1999.90;999.90;;;12.20;99.90;;;;;;5112294;28;20085;-73
2022/06/05 04:08:37;;;;;;;1999.90;999.90;;;12.30;99.90;;;;;;5078664;28;20043;-73
2022/06/05 04:11:12;;;;;;;1999.90;999.90;;;12.30;99.90;;;;;;5113279;28;20083;-72
2022/06/05 04:13:38;;;;;;;1999.90;999.90;;;12.30;99.90;;;;;;5112999;28;20118;-77
2022/06/05 04:16:12;;;;;;;1711.82;793.80;;;12.40;99.90;;;;;;5112652;28;20105;-72
2022/06/05 04:18:38;;;;;;;1999.90;999.90;;;12.40;99.90;;;;;;5113007;28;20089;-73
2022/06/05 04:21:18;;;;;;;1999.90;999.90;;;12.50;99.90;;;;;;5111825;28;20434;-73
2022/06/05 04:23:44;;;;;;;1999.90;999.90;;;12.50;99.90;;;;;;5112618;28;20043;-73
2022/06/05 04:26:13;;;;;;;1808.57;830.35;;;12.50;99.90;;;;;;5094810;28;20036;-72
2022/06/05 04:28:39;;;;;;;770.92;220.98;;;12.60;99.90;;;;;;5095247;28;20423;-73
2022/06/05 04:31:19;;;;;;;1679.25;791.10;;;12.70;99.90;;;;;;5112931;28;20436;-73
2022/06/05 04:33:46;;;;;;;1999.90;999.90;;;12.70;99.90;;;;;;5112284;28;20048;-73
2022/06/05 04:36:11;;;;;;;1999.90;999.90;;;13.20;99.90;;;;;;5112253;28;20046;-73
2022/06/05 04:38:37;;;;;;;1999.90;999.90;;;13.10;99.90;;;;;;5112659;28;20437;-74
2022/06/05 04:41:03;;;;;;;1999.90;999.90;;;12.90;99.90;;;;;;5112508;28;20511;-73
2022/06/05 04:43:28;;;;;;;1999.90;999.90;;;13.00;99.90;;;;;;5112836;28;20095;-73
2022/06/05 04:45:54;;;;;;;1999.90;999.90;;;13.10;99.90;;;;;;5112114;28;20039;-73
2022/06/05 04:48:20;;;;;;;1999.90;999.90;;;13.20;99.90;;;;;;5112819;28;20162;-73
2022/06/05 04:50:45;;;;;;;1999.90;999.90;;;13.30;99.10;;;;;;5111916;28;20147;-73
2022/06/05 04:53:11;;;;;;;1999.90;999.90;;;13.30;93.70;;;;;;5113075;28;20435;-73
2022/06/05 04:55:38;;;;;;;1678.88;803.35;;;13.40;95.40;;;;;;5111943;28;20047;-73
2022/06/05 04:58:04;;;;;;;1999.90;999.90;;;13.50;93.90;;;;;;5094270;28;20196;-73
2022/06/05 05:00:30;;;;;;;1999.90;999.90;;;13.60;92.50;;;;;;5111033;28;20050;-74
2022/06/05 05:02:56;;;;;;;1999.90;999.90;;;13.70;91.70;;;;;;5112311;28;20056;-73
2022/06/05 05:05:22;;;;;;;1999.90;999.90;;;13.80;90.00;;;;;;5111751;28;20086;-73
2022/06/05 05:07:47;;;;;;;1999.90;999.90;;;13.90;86.80;;;;;;5112348;28;20126;-73
2022/06/05 05:10:14;;;;;;;1999.90;999.90;;;14.00;85.90;;;;;;5111818;28;20508;-73
2022/06/05 05:12:40;;;;;;;1999.90;999.90;;;14.10;85.80;;;;;;5111905;28;20048;-72
2022/06/05 05:15:08;;;;;;;1999.90;999.90;;;14.20;82.40;;;;;;5111860;28;20105;-73
2022/06/05 05:17:34;;;;;;;1999.90;999.90;;;14.30;75.70;;;;;;5111790;28;20055;-73
2022/06/05 05:19:59;;;;;;;1999.90;999.90;;;14.40;67.90;;;;;;5110951;28;20127;-73
2022/06/05 05:22:25;;;;;;;1999.90;858.53;;;14.40;62.70;;;;;;5111656;28;20040;-73
2022/06/05 05:24:51;;;;;;;1999.90;498.45;;;14.50;55.60;;;;;;5111041;28;20052;-73
2022/06/05 05:27:17;;;;;;;1999.90;765.78;;;14.60;44.80;;;;;;5111681;28;20465;-73
2022/06/05 05:29:42;;;;;;;1999.90;999.90;;;15.00;38.70;;;;;;5111569;28;20054;-73
2022/06/05 05:32:10;;;;;;;1999.90;999.90;;;14.70;35.90;;;;;;5075666;28;20054;-73
2022/06/05 05:34:36;;;;;;;1999.90;999.90;;;14.70;33.00;;;;;;5111456;28;20083;-73
2022/06/05 05:37:02;;;;;;;1999.90;999.90;;;15.00;29.70;;;;;;5111529;28;20096;-73
2022/06/05 05:42:12;;;;;;;1999.90;809.03;;;15.00;26.40;;;;;;5111965;28;20104;-73
2022/06/05 05:44:46;;;;;;;1999.90;999.90;;;15.10;16.70;;;;;;5093791;28;20043;-73
2022/06/05 05:47:23;;;;;;;1948.30;359.92;;;15.20;13.60;;;;;;5110917;28;20051;-73
2022/06/05 05:50:01;;;;;;;1999.90;999.90;;;15.30;12.00;;;;;;5110907;28;20040;-73
2022/06/05 05:52:28;;;;;;;;;;;15.40;10.50;;;;;;5111274;28;20039;-73
2022/06/05 05:54:54;;;;;;;1964.28;850.28;;;15.40;4.80;;;;;;5110753;28;19945;-77
2022/06/05 05:57:20;;;;;;;1999.90;569.38;;;15.50;1.90;;;;;;5093381;28;20380;-73
2022/06/05 05:59:46;;;;;;;1946.28;659.15;;;15.60;1.00;;;;;;5111127;28;20060;-73
2022/06/05 06:02:16;;;;;;;1999.90;548.67;;;15.70;1.00;;;;;;5092008;28;20043;-73
2022/06/05 06:04:42;;;;;;;1999.90;999.90;;;15.80;1.00;;;;;;5110432;28;20051;-73
2022/06/05 06:07:09;;;;;;;1999.90;999.90;;;15.90;1.00;;;;;;5110701;28;20493;-73
2022/06/05 06:09:35;;;;;;;1999.90;881.15;;;16.00;1.00;;;;;;5111353;28;20047;-77
2022/06/05 06:12:01;;;;;;;1999.90;768.28;;;16.10;1.00;;;;;;5110931;28;20039;-73
2022/06/05 06:14:27;;;;;;;1999.90;861.20;;;16.20;1.00;;;;;;5110826;28;20484;-73
2022/06/05 06:16:53;;;;;;;1999.90;572.28;;;16.30;1.00;;;;;;5110854;28;20062;-73
2022/06/05 06:19:19;;;;;;;1350.35;333.92;;;16.40;1.00;;;;;;5110858;28;20138;-71
2022/06/05 06:21:45;;;;;;;1999.90;737.58;;;16.50;1.00;;;;;;5111391;28;20127;-70
2022/06/05 06:24:11;;;;;;;1999.90;999.90;;;16.70;1.00;;;;;;5091890;28;20100;-71
2022/06/05 06:26:38;;;;;;;1999.90;999.90;;;16.80;1.00;;;;;;5110522;28;20233;-72
2022/06/05 06:29:03;;;;;;;1999.90;999.90;;;16.90;1.00;;;;;;5111120;28;20072;-72
2022/06/05 06:31:29;;;;;;;1999.90;999.90;;;17.00;1.00;;;;;;5093805;28;20055;-71
2022/06/05 06:33:55;;;;;;;1852.75;490.38;;;17.10;1.00;;;;;;5111373;28;20552;-71
2022/06/05 06:36:20;;;;;;;1999.90;999.90;;;17.20;1.00;;;;;;5110662;28;20047;-71
2022/06/05 06:38:47;;;;;;;1999.90;999.90;;;17.40;1.00;;;;;;5092835;28;20128;-72
2022/06/05 06:41:17;;;;;;;1999.90;806.05;;;17.40;1.00;;;;;;5111517;28;20043;-71
2022/06/05 06:43:44;;;;;;;1999.90;708.35;;;17.60;1.00;;;;;;5112915;28;20127;-70
2022/06/05 06:46:11;;;;;;;1999.90;812.17;;;17.60;1.00;;;;;;5115655;28;20050;-71
2022/06/05 06:48:37;;;;;;;1855.63;693.13;;;17.70;1.00;;;;;;5114167;28;20044;-74
2022/06/05 06:51:05;;;;;;;1999.90;999.90;;;17.00;1.00;;;;;;5114389;28;20042;-71
2022/06/05 06:53:33;;;;;;;1999.90;999.90;;;17.90;1.00;;;;;;5115691;28;20066;-71
2022/06/05 06:56:05;;;;;;;1999.90;999.90;;;18.10;1.00;;;;;;5114784;28;20471;-71
2022/06/05 06:58:30;;;;;;;1999.90;999.90;;;18.20;1.00;;;;;;5113930;28;20039;-72
2022/06/05 07:00:56;;;;;;;1999.90;999.90;;;18.40;1.00;;;;;;5113221;28;20047;-72
2022/06/05 07:03:22;;;;;;;1999.90;999.90;;;18.60;1.00;;;;;;5096527;28;20175;-71
2022/06/05 07:05:47;;;;;;;1999.90;999.90;;;18.70;1.00;;;;;;5114793;28;20047;-71
2022/06/05 07:08:13;;;;;;;1999.90;941.78;;;19.10;1.00;;;;;;5096262;28;20065;-73
2022/06/05 07:10:39;;;;;;;1999.90;999.90;;;19.70;1.00;;;;;;5114425;28;20471;-71
2022/06/05 07:13:05;;;;;;;1999.90;999.90;;;20.40;1.00;;;;;;5114377;28;20051;-72
2022/06/05 07:15:34;;;;;;;1999.90;999.90;;;21.20;1.00;;;;;;5113622;28;20091;-71
2022/06/05 07:18:02;;;;;;;1999.90;999.90;;;21.90;1.00;;;;;;5113580;28;20400;-72
2022/06/05 07:20:27;;;;;;;1836.55;999.90;;;22.50;1.00;;;;;;5114276;28;20039;-71
2022/06/05 07:22:53;;;;;;;1871.13;999.90;;;22.90;1.00;;;;;;5114319;28;20066;-72
2022/06/05 07:25:19;;;;;;;1335.18;999.90;;;23.50;1.00;;;;;;5114119;28;20044;-74
2022/06/05 07:27:44;;;;;;;1700.32;999.90;;;23.60;99.90;;;;;;5095854;28;20040;-75
2022/06/05 07:30:12;;;;;;;1999.90;999.90;;;24.20;99.90;;;;;;5095977;28;20122;-72
2022/06/05 07:32:38;;;;;;;;;;;24.60;99.90;;;;;;5115382;28;20051;-72
2022/06/05 07:35:04;;;;;;;1082.38;965.40;;;25.00;99.90;;;;;;5114040;28;20375;-72
2022/06/05 07:37:30;;;;;;;1999.90;998.95;;;24.90;99.90;;;;;;5113413;28;20077;-76
2022/06/05 07:39:56;;;;;;;803.25;736.50;;;24.60;99.90;;;;;;5113536;28;20412;-72
2022/06/05 07:42:21;;;;;;;1927.25;985.45;;;24.50;99.90;;;;;;5114068;28;20047;-72
2022/06/05 07:44:47;;;;;;;1001.20;858.17;;;24.30;99.90;;;;;;5114548;28;20044;-71
2022/06/05 07:47:13;;;;;;;1136.30;899.05;;;24.20;99.90;;;;;;5113543;28;20154;-71
2022/06/05 07:49:39;;;;;;;1338.55;987.45;;;24.20;99.90;;;;;;5114544;28;20361;-71
2022/06/05 07:54:50;;;;;;;897.03;810.50;;;25.00;99.90;;;;;;5113046;28;20054;-71
2022/06/05 07:57:20;;;;;;;887.58;800.85;;;25.40;99.90;;;;;;5113665;28;20051;-71
2022/06/05 07:59:47;;;;;;;949.50;857.80;;;25.70;99.90;;;;;;5113829;28;20044;-71
2022/06/05 08:02:14;;;;;;;;;;;26.00;99.90;;;;;;5094468;28;20055;-72
2022/06/05 08:04:42;;;;;;;1999.90;999.90;;;26.30;99.90;;;;;;5114275;28;20010;-71
2022/06/05 08:07:10;;;;;;;1999.90;999.90;;;26.20;99.90;;;;;;5113153;28;20047;-71
2022/06/05 08:09:37;;;;;;;1999.90;999.90;;;25.90;99.90;;;;;;5113547;28;20063;-74
2022/06/05 08:12:04;;;;;;;1089.80;967.43;;;25.90;99.90;;;;;;5095046;28;20122;-72
2022/06/05 08:14:32;;;;;;;1491.15;961.35;;;26.20;99.90;;;;;;5112964;28;20511;-71
2022/06/05 08:16:58;;;;;;;1965.95;999.90;;;26.50;99.90;;;;;;5112311;28;20056;-73
2022/06/05 08:19:24;;;;;;;1999.90;999.90;;;26.90;99.90;;;;;;5113459;28;20055;-72
2022/06/05 08:21:52;;;;;;;1482.32;970.28;;;27.20;99.90;;;;;;5113900;28;20361;-72
2022/06/05 08:24:18;;;;;;;769.75;707.38;;;27.30;99.90;;;;;;5113554;28;20104;-71
2022/06/05 08:26:44;;;;;;;862.63;771.20;;;27.30;99.90;;;;;;5112615;28;20507;-71
2022/06/05 08:29:10;;;;;;;782.47;717.28;;;27.40;99.90;;;;;;5113316;28;20052;-72
2022/06/05 08:31:36;;;;;;;823.28;736.28;;;27.50;99.90;;;;;;5113719;28;20449;-72
2022/06/05 08:34:03;;;;;;;863.80;780.58;;;27.60;99.90;;;;;;5113228;28;20444;-71
2022/06/05 08:36:29;;;;;;;761.80;694.05;;;27.70;99.90;;;;;;5113815;28;20043;-71
2022/06/05 08:42:12;;;;;;;801.72;727.22;;;27.40;99.90;;;;;;5113304;28;20066;-71
2022/06/05 08:44:40;;;;;;;800.33;718.33;;;27.40;99.90;;;;;;5113374;28;20130;-71
2022/06/05 08:47:18;;;;;;;;;;;27.20;99.90;;;;;;5113890;28;20289;-72
2022/06/05 08:50:06;;;;;;;759.60;683.92;;;26.80;99.90;;;;;;5113217;28;19997;-72
2022/06/05 08:52:59;;;;;;;657.30;597.30;;;26.50;99.90;;;;;;5113617;28;20047;-71
2022/06/05 08:55:31;;;;;;;706.92;648.78;;;26.10;99.90;;;;;;5108479;28;20063;-71
2022/06/05 08:58:05;;;;;;;1045.68;843.60;;;25.80;99.90;;;;;;5113515;28;20047;-73
2022/06/05 09:00:44;;;;;;;892.22;811.30;;;25.70;99.90;;;;;;5111155;28;20043;-71
2022/06/05 09:03:24;;;;;;;974.10;870.08;;;25.50;99.90;;;;;;5112654;28;20066;-72
2022/06/05 09:06:01;;;;;;;700.05;630.83;;;25.30;99.90;;;;;;5112936;28;20043;-71
2022/06/05 09:08:31;;;;;;;603.33;559.75;;;25.30;99.90;;;;;;5112835;28;20506;-71
2022/06/05 09:11:04;;;;;;;1022.90;910.90;;;25.40;99.90;;;;;;5112572;28;20047;-72
2022/06/05 09:13:47;;;;;;;800.42;728.17;;;25.60;99.90;;;;;;5112919;28;20036;-72
2022/06/05 09:16:20;;;;;;;894.70;818.63;;;25.80;99.90;;;;;;5112278;28;20424;-71
2022/06/05 09:18:48;;;;;;;845.70;777.10;;;26.20;99.90;;;;;;5113438;28;20131;-71
2022/06/05 09:21:26;;;;;;;860.05;790.10;;;26.60;99.90;;;;;;5111214;28;20093;-72
2022/06/05 09:24:08;;;;;;;820.30;744.92;;;27.00;99.90;;;;;;5112842;28;20100;-71
2022/06/05 09:26:52;;;;;;;552.67;509.00;;;27.60;99.90;;;;;;5112471;28;20113;-71
2022/06/05 09:30:01;;;;;;;460.15;431.05;;;28.20;99.90;;;;;;5112568;28;20044;-71
2022/06/05 09:32:38;;;;;;;534.47;495.60;;;29.10;99.90;;;;;;4993000;28;20431;-72
2022/06/05 09:35:21;;;;;;;597.07;552.80;;;29.80;99.90;;;;;;5098913;28;20058;-71
2022/06/05 09:37:57;;;;;;;538.25;498.23;;;30.30;99.90;;;;;;5112639;28;20048;-72
2022/06/05 09:40:34;;;;;;;656.47;602.53;;;30.50;99.90;;;;;;5111810;28;20032;-71
2022/06/05 09:43:05;;;;;;;559.20;514.03;;;31.20;99.90;;;;;;5112240;28;20082;-72
2022/06/05 09:45:40;;;;;;;827.50;744.35;;;31.40;99.90;;;;;;5112171;28;20427;-72
2022/06/05 09:48:14;;;;;;;613.63;570.38;;;31.50;99.90;;;;;;5112574;28;20104;-72
2022/06/05 09:50:40;;;;;;;504.98;472.40;;;31.50;99.90;;;;;;5111202;28;20396;-74
2022/06/05 09:53:13;;;;;;;572.40;530.53;;;31.40;99.90;;;;;;5106693;28;20052;-72
2022/06/05 09:55:44;;;;;;;475.23;442.85;;;31.30;99.90;;;;;;5089807;28;20048;-73
2022/06/05 09:58:28;;;;;;;541.15;505.02;;;31.00;99.90;;;;;;5107337;28;20403;-73
2022/06/05 10:00:59;;;;;;;455.98;425.73;;;30.70;99.90;;;;;;5106724;28;20484;-73
2022/06/05 10:03:39;;;;;;;561.25;520.22;;;30.40;99.90;;;;;;5107342;28;20047;-72
2022/06/05 10:06:14;;;;;;;823.70;753.17;;;30.40;99.90;;;;;;5107720;28;20067;-76
2022/06/05 10:08:46;;;;;;;677.10;629.08;;;30.40;99.90;;;;;;5107211;28;20078;-72
2022/06/05 10:11:23;;;;;;;445.98;416.60;;;30.30;99.90;;;;;;5107210;28;20032;-72
2022/06/05 10:14:02;;;;;;;499.05;465.95;;;30.30;99.90;;;;;;5107919;28;20074;-73
2022/06/05 10:16:40;;;;;;;653.80;603.72;;;30.20;99.90;;;;;;5107256;28;20411;-72
2022/06/05 10:19:13;;;;;;;429.83;401.92;;;29.90;99.90;;;;;;5112144;28;20087;-73
2022/06/05 10:22:06;;;;;;;559.80;518.80;;;29.80;99.90;;;;;;5114468;28;20508;-74
2022/06/05 10:24:54;;;;;;;531.80;494.95;;;29.40;99.90;;;;;;5110056;28;20119;-77
2022/06/05 10:27:21;;;;;;;392.77;366.58;;;28.90;99.90;;;;;;5111196;28;20043;-78
2022/06/05 10:29:53;;;;;;;470.98;436.92;;;28.50;99.90;;;;;;5111513;28;20048;-76
2022/06/05 10:32:35;;;;;;;622.42;573.95;;;28.20;99.90;;;;;;5111324;28;20044;-72
2022/06/05 10:35:09;;;;;;;598.13;555.67;;;28.10;99.90;;;;;;5112520;28;20096;-72
2022/06/05 10:37:56;;;;;;;569.42;526.88;;;28.00;99.90;;;;;;5112044;28;20678;-77
2022/06/05 10:40:51;;;;;;;612.53;568.42;;;27.90;99.90;;;;;;5112136;28;20065;-72
2022/06/05 10:43:22;;;;;;;532.65;493.98;;;27.50;99.90;;;;;;5089025;28;20175;-77
2022/06/05 10:46:05;;;;;;;775.33;709.55;;;27.10;99.90;;;;;;5112714;28;20048;-77
2022/06/05 10:48:49;;;;;;;855.90;777.00;;;27.00;99.90;;;;;;5112686;28;20097;-72
2022/06/05 10:51:32;;;;;;;920.83;827.38;;;26.80;99.90;;;;;;5113817;28;20499;-74
2022/06/05 10:54:16;;;;;;;806.88;735.67;;;26.70;99.90;;;;;;5117555;28;20105;-73
2022/06/05 10:56:54;;;;;;;838.47;759.78;;;26.70;99.90;;;;;;5117379;28;20039;-72
2022/06/05 10:59:57;;;;;;;743.70;680.70;;;26.70;99.90;;;;;;5117645;28;20044;-72
2022/06/05 11:02:51;;;;;;;801.45;733.00;;;26.90;99.90;;;;;;5115325;28;20036;-73
2022/06/05 11:09:29;;;;;;;1999.90;999.90;;;27.10;99.90;;;;;;5117328;28;20112;-76
2022/06/05 11:15:35;;;;;;;1999.90;999.90;;;24.80;99.90;;;;;;5099515;28;20059;-77
2022/06/05 11:18:26;;;;;;;1999.90;999.90;;;24.30;99.90;;;;;;5117619;28;20051;-77
2022/06/05 11:20:58;;;;;;;1999.90;999.90;;;24.00;99.90;;;;;;5117675;28;20161;-77
2022/06/05 11:23:29;;;;;;;1999.90;999.90;;;23.80;99.90;;;;;;5099381;28;20048;-75
2022/06/05 11:25:59;;;;;;;1863.72;999.90;;;23.80;99.90;;;;;;5099484;28;20046;-75
2022/06/05 11:28:42;;;;;;;1999.90;999.90;;;23.70;99.90;;;;;;5116695;28;20376;-74
2022/06/05 11:31:13;;;;;;;1646.43;999.90;;;23.80;99.90;;;;;;5114689;28;20172;-75
2022/06/05 11:34:09;;;;;;;1210.82;967.25;;;23.80;99.90;;;;;;5114368;28;20112;-76
2022/06/05 11:36:45;;;;;;;1999.90;999.90;;;23.70;99.90;;;;;;5113834;28;20047;-75
2022/06/05 11:39:26;;;;;;;1972.13;999.90;;;23.60;99.90;;;;;;5114155;28;20052;-75
2022/06/05 11:42:19;;;;;;;1999.90;999.90;;;23.60;99.90;;;;;;5113956;28;20036;-74
2022/06/05 11:45:03;;;;;;;1999.90;999.90;;;23.80;99.90;;;;;;5112996;28;20055;-75
2022/06/05 11:47:50;;;;;;;1999.90;999.90;;;23.90;99.90;;;;;;5113804;28;20096;-73
2022/06/05 11:50:33;;;;;;;1664.90;953.55;;;24.00;99.90;;;;;;5112908;28;20050;-73
2022/06/05 11:53:46;;;;;;;1999.90;999.90;;;24.10;99.90;;;;;;5111939;28;20051;-77
2022/06/05 11:56:33;;;;;;;1355.80;967.13;;;24.20;99.90;;;;;;5094444;28;20048;-72
2022/06/05 11:59:26;;;;;;;1600.13;988.20;;;24.30;99.90;;;;;;5113237;28;20054;-74
2022/06/05 12:02:08;;;;;;;1999.90;959.65;;;24.40;99.90;;;;;;5111638;28;20711;-76
2022/06/05 12:04:58;;;;;;;1690.07;999.90;;;24.50;99.90;;;;;;5112560;28;20050;-74
2022/06/05 12:07:25;;;;;;;1505.70;999.90;;;24.70;99.90;;;;;;5113104;28;20048;-74
2022/06/05 12:09:58;;;;;;;1996.07;999.90;;;24.80;99.90;;;;;;5112619;28;20054;-74
2022/06/05 12:12:35;;;;;;;1413.03;994.55;;;24.90;99.90;;;;;;5113910;28;20059;-75
2022/06/05 12:15:43;;;;;;;1525.95;964.65;;;25.00;99.90;;;;;;5112903;28;20122;-74
2022/06/05 12:18:17;;;;;;;1959.57;999.90;;;25.10;99.90;;;;;;5030921;28;20139;-75
2022/06/05 12:21:01;;;;;;;1302.72;958.85;;;25.30;99.90;;;;;;5111701;28;20087;-77
2022/06/05 12:23:47;;;;;;;1505.07;999.90;;;25.40;99.90;;;;;;5111060;28;20054;-78
2022/06/05 12:26:24;;;;;;;1829.28;999.90;;;25.30;99.90;;;;;;5111406;28;20100;-73
2022/06/05 12:28:59;;;;;;;1395.05;999.90;;;25.40;99.90;;;;;;5093083;28;20503;-74
2022/06/05 12:31:35;;;;;;;1362.90;997.38;;;25.40;99.90;;;;;;5112039;28;20043;-74
2022/06/05 12:34:12;;;;;;;1355.80;999.90;;;25.50;99.90;;;;;;5113381;28;20040;-74
2022/06/05 12:37:01;;;;;;;1200.45;999.90;;;25.40;99.90;;;;;;5111131;28;20087;-74
2022/06/05 12:39:33;;;;;;;1510.90;984.53;;;25.40;99.90;;;;;;5111808;28;20047;-73
2022/06/05 12:42:28;;;;;;;1412.57;999.90;;;25.30;99.90;;;;;;5110852;28;20310;-73
2022/06/05 12:44:58;;;;;;;1219.57;999.75;;;25.30;99.90;;;;;;5112578;28;20035;-73
2022/06/05 12:47:50;;;;;;;1311.90;999.90;;;25.30;99.90;;;;;;5109638;28;20043;-75
2022/06/05 12:50:40;;;;;;;1366.47;999.90;;;25.40;99.90;;;;;;5112018;28;20039;-73
2022/06/05 12:53:43;;;;;;;1324.53;981.38;;;25.30;99.90;;;;;;5110973;28;20134;-73
2022/06/05 12:56:30;;;;;;;1551.32;999.90;;;25.40;99.90;;;;;;5110739;28;20047;-77
2022/06/05 12:59:02;;;;;;;1520.18;999.90;;;25.40;99.90;;;;;;5111895;28;20134;-73